Time;durP1;ratioP1;P1;durP2;ratioP2;P2;SDS_P1;SDS_P2;PMS_P1;PMS_P2;Temp;Humidity;BMP_temperature;BMP_pressure;BME280_temperature;BME280_humidity;BME280_pressure;Samples;Min_cycle;Max_cycle;Signal;HPM_P1;HPM_P2
2023/05/31 05:06:41;;;;;;;;;;;;;;;20.05;47.17;96814.03;4213947;27;10400;-65
2023/05/31 05:08:45;;;;;;;;;;;;;;;20.35;46.94;96816.19;4214676;28;5698;-65
2023/05/31 05:10:48;;;;;;;;;;;;;;;20.60;46.58;96815.63;4214408;28;5693;-64
2023/05/31 05:12:50;;;;;;;;;;;;;;;20.80;46.39;96815.78;4214910;28;5764;-64
2023/05/31 05:14:53;;;;;;;;;;;;;;;20.95;46.19;96820.44;4213047;28;6367;-64
2023/05/31 05:16:56;;;;;;;;;;;;;;;21.04;46.07;96820.78;4214227;28;5693;-64
2023/05/31 05:18:59;;;;;;;;;;;;;;;21.12;45.77;96817.63;4214386;28;5698;-64
2023/05/31 05:21:03;;;;;;;;;;;;;;;21.19;46.07;96828.97;4214166;28;5760;-64
2023/05/31 05:23:07;;;;;;;;;;;;;;;21.35;45.86;96819.94;4214568;28;6370;-64
2023/05/31 05:25:10;;;;;;;;;;;;;;;21.44;45.68;96826.44;4214332;28;5702;-65
2023/05/31 05:27:13;;;;;;;;;;;;;;;21.49;45.27;96831.03;4203477;28;5880;-65
2023/05/31 05:29:16;;;;;;;;;;;;;;;21.59;45.36;96825.69;4204793;28;5807;-65
2023/05/31 05:31:19;;;;;;;;;;;;;;;21.66;45.07;96828.97;4214377;28;5697;-64
2023/05/31 05:33:22;;;;;;;;;;;;;;;21.76;45.04;96830.91;4207297;28;5785;-63
2023/05/31 05:35:25;;;;;;;;;;;;;;;21.82;44.88;96834.41;4214254;28;5690;-64
2023/05/31 05:37:28;;;;;;;;;;;;;;;21.89;44.65;96833.09;4214093;28;5697;-64
2023/05/31 05:39:32;;;;;;;;;;;;;;;21.94;44.64;96832.28;4214270;28;5884;-64
2023/05/31 05:41:35;;;;;;;;;;;;;;;21.92;44.79;96831.75;4205749;28;5689;-63
2023/05/31 05:43:38;;;;;;;;;;;;;;;21.92;44.46;96837.13;4212951;28;5784;-64
2023/05/31 05:45:41;;;;;;;;;;;;;;;22.00;44.80;96840.13;4214290;28;5828;-64
2023/05/31 05:47:45;;;;;;;;;;;;;;;22.07;44.63;96835.31;4215408;28;5761;-64
2023/05/31 05:49:48;;;;;;;;;;;;;;;22.16;44.21;96830.22;4214183;28;5710;-64
2023/05/31 05:51:51;;;;;;;;;;;;;;;22.26;44.14;96826.75;4211950;28;5681;-64
2023/05/31 05:53:54;;;;;;;;;;;;;;;22.28;44.08;96822.69;4208255;28;5919;-64
2023/05/31 05:55:58;;;;;;;;;;;;;;;22.39;44.15;96834.31;4213508;28;6390;-64
2023/05/31 05:58:01;;;;;;;;;;;;;;;22.49;43.85;96839.72;4213959;28;5818;-65
2023/05/31 06:00:10;;;;;;;;;;;;;;;22.53;43.53;96843.47;4213787;28;6374;-65
2023/05/31 06:02:13;;;;;;;;;;;;;;;22.59;43.47;96839.72;4213875;28;5839;-64
2023/05/31 06:04:16;;;;;;;;;;;;;;;22.63;43.58;96837.28;4214039;28;5075;-65
2023/05/31 06:06:19;;;;;;;;;;;;;;;22.70;43.74;96842.41;4209867;28;5801;-65
2023/05/31 06:08:22;;;;;;;;;;;;;;;22.78;43.12;96841.91;4201950;28;5702;-64
2023/05/31 06:10:25;;;;;;;;;;;;;;;22.82;43.16;96840.25;4202735;28;5813;-64
2023/05/31 06:12:29;;;;;;;;;;;;;;;22.92;43.15;96841.09;4202230;28;6660;-65
2023/05/31 06:14:32;;;;;;;;;;;;;;;22.99;42.83;96835.44;4202719;28;5818;-65
2023/05/31 06:16:35;;;;;;;;;;;;;;;23.04;43.17;96840.81;4201693;28;5785;-64
2023/05/31 06:18:38;;;;;;;;;;;;;;;23.11;42.64;96838.66;4202106;28;5718;-64
2023/05/31 06:20:42;;;;;;;;;;;;;;;23.20;43.02;96839.72;4201590;28;5810;-65
2023/05/31 06:22:45;;;;;;;;;;;;;;;23.29;42.93;96844.56;4202010;28;5971;-64
2023/05/31 06:24:50;;;;;;;;;;;;;;;23.31;42.57;96839.69;4201382;28;5929;-64
2023/05/31 06:26:53;;;;;;;;;;;;;;;23.33;42.95;96843.75;4201742;28;5693;-64
2023/05/31 06:29:00;;;;;;;;;;;;;;;23.34;42.64;96847.25;4202049;28;5819;-65
2023/05/31 06:31:03;;;;;;;;;;;;;;;23.37;42.80;96852.91;4202184;28;5780;-64
2023/05/31 06:33:06;;;;;;;;;;;;;;;23.39;42.76;96841.84;4202129;28;5681;-64
2023/05/31 06:35:09;;;;;;;;;;;;;;;23.44;42.85;96841.81;4201769;28;5784;-64
2023/05/31 06:37:12;;;;;;;;;;;;;;;23.44;42.89;96845.34;4201424;28;5705;-64
2023/05/31 06:39:15;;;;;;;;;;;;;;;23.48;42.68;96851.00;4203708;28;5813;-65
2023/05/31 06:41:18;;;;;;;;;;;;;;;23.50;42.42;96851.53;4201344;28;5691;-65
2023/05/31 06:43:21;;;;;;;;;;;;;;;23.52;42.28;96844.75;4201762;28;5686;-64
2023/05/31 06:45:25;;;;;;;;;;;;;;;23.53;41.94;96840.19;4201968;28;5791;-64
2023/05/31 06:47:28;;;;;;;;;;;;;;;23.57;42.06;96854.75;4201415;28;5702;-64
2023/05/31 06:49:33;;;;;;;;;;;;;;;23.67;41.97;96851.22;4202212;28;5705;-63
2023/05/31 06:51:36;;;;;;;;;;;;;;;23.71;41.76;96853.13;4193808;28;5686;-64
2023/05/31 06:53:39;;;;;;;;;;;;;;;23.72;41.68;96849.31;4201509;28;5706;-65
2023/05/31 06:55:42;;;;;;;;;;;;;;;23.70;41.91;96856.09;4202798;28;5689;-64
2023/05/31 06:57:45;;;;;;;;;;;;;;;23.69;41.97;96857.19;4201437;28;5675;-64
2023/05/31 06:59:49;;;;;;;;;;;;;;;23.68;41.94;96852.88;4201556;28;5789;-64
2023/05/31 07:01:54;;;;;;;;;;;;;;;23.66;41.68;96855.00;4201302;28;5932;-64
2023/05/31 07:03:57;;;;;;;;;;;;;;;23.61;41.75;96849.63;4200596;28;5876;-65
2023/05/31 07:06:00;;;;;;;;;;;;;;;23.56;41.59;96845.03;4201454;28;5736;-64
2023/05/31 07:08:02;;;;;;;;;;;;;;;23.49;41.58;96844.50;4189315;28;5718;-63
2023/05/31 07:10:06;;;;;;;;;;;;;;;23.44;41.74;96849.91;4196514;28;5765;-64
2023/05/31 07:12:10;;;;;;;;;;;;;;;23.45;42.01;96848.84;4185106;28;5707;-65
2023/05/31 07:14:13;;;;;;;;;;;;;;;23.48;42.04;96848.28;4194274;28;5772;-65
2023/05/31 07:16:16;;;;;;;;;;;;;;;23.48;41.84;96851.81;4191500;28;5694;-65
2023/05/31 07:18:20;;;;;;;;;;;;;;;23.47;41.98;96846.69;4201042;28;5685;-64
2023/05/31 07:20:23;;;;;;;;;;;;;;;23.45;42.04;96846.16;4200657;28;5781;-64
2023/05/31 07:22:26;;;;;;;;;;;;;;;23.42;41.80;96850.19;4192982;28;5841;-65
2023/05/31 07:24:34;;;;;;;;;;;;;;;23.42;41.93;96843.97;4192925;28;5710;-64
2023/05/31 07:26:37;;;;;;;;;;;;;;;23.43;41.92;96843.72;4185247;28;5745;-65
2023/05/31 07:28:43;;;;;;;;;;;;;;;23.40;41.81;96844.25;4201726;28;5090;-65
2023/05/31 07:30:46;;;;;;;;;;;;;;;23.41;41.80;96842.38;4193547;28;5906;-64
2023/05/31 07:32:49;;;;;;;;;;;;;;;23.38;41.43;96841.03;4193510;28;5714;-64
2023/05/31 07:34:53;;;;;;;;;;;;;;;23.31;41.55;96845.09;4201657;28;5690;-64
2023/05/31 07:37:07;;;;;;;;;;;;;;;23.27;41.80;96836.75;4201374;28;5702;-64
2023/05/31 07:39:10;;;;;;;;;;;;;;;23.28;41.43;96832.16;4196586;28;5735;-64
2023/05/31 07:41:13;;;;;;;;;;;;;;;23.24;41.27;96838.09;4190058;28;5914;-63
2023/05/31 07:43:20;;;;;;;;;;;;;;;23.22;41.73;96834.06;4201712;28;5694;-65
2023/05/31 07:45:23;;;;;;;;;;;;;;;23.23;41.64;96833.78;4186850;28;5730;-65
2023/05/31 07:47:26;;;;;;;;;;;;;;;23.19;41.47;96830.00;4197200;28;5707;-65
2023/05/31 07:49:30;;;;;;;;;;;;;;;23.15;41.09;96834.34;4201555;28;5796;-65
2023/05/31 07:51:35;;;;;;;;;;;;;;;23.13;41.23;96836.50;4200291;28;5713;-65
2023/05/31 07:53:39;;;;;;;;;;;;;;;23.15;41.40;96834.34;4200554;28;5702;-64
2023/05/31 07:55:43;;;;;;;;;;;;;;;23.14;41.25;96832.72;4200260;28;5820;-69
2023/05/31 07:57:46;;;;;;;;;;;;;;;23.10;41.05;96839.72;4199672;28;5675;-66
2023/05/31 07:59:51;;;;;;;;;;;;;;;23.07;41.26;96844.84;4200599;28;5093;-66
2023/05/31 08:01:54;;;;;;;;;;;;;;;23.05;41.47;96845.13;4199838;28;5844;-65
2023/05/31 08:04:06;;;;;;;;;;;;;;;23.02;41.47;96843.00;4191632;28;5817;-73
2023/05/31 08:06:10;;;;;;;;;;;;;;;23.04;41.13;96842.72;4200939;28;5722;-73
2023/05/31 08:08:14;;;;;;;;;;;;;;;23.04;41.16;96838.13;4200813;28;5686;-75
2023/05/31 08:10:17;;;;;;;;;;;;;;;23.03;41.29;96830.31;4201180;28;5686;-73
2023/05/31 08:12:21;;;;;;;;;;;;;;;22.97;41.25;96832.19;4200773;28;5698;-68
2023/05/31 08:14:29;;;;;;;;;;;;;;;22.96;41.44;96830.56;4200792;28;5195;-65
2023/05/31 08:16:33;;;;;;;;;;;;;;;22.93;41.31;96829.25;4199305;28;5678;-67
2023/05/31 08:18:37;;;;;;;;;;;;;;;22.92;41.63;96827.63;4200586;28;5770;-68
2023/05/31 08:20:40;;;;;;;;;;;;;;;22.91;41.41;96827.91;4201633;28;5788;-76
2023/05/31 08:22:45;;;;;;;;;;;;;;;22.92;41.50;96829.50;4201643;28;5704;-77
2023/05/31 08:24:51;;;;;;;;;;;;;;;22.94;41.11;96832.75;4201593;28;5777;-78
2023/05/31 08:26:56;;;;;;;;;;;;;;;22.97;41.22;96823.28;4199944;28;7050;-77
2023/05/31 08:29:01;;;;;;;;;;;;;;;22.96;41.51;96825.19;4201598;28;5710;-77
2023/05/31 08:31:05;;;;;;;;;;;;;;;22.96;41.32;96825.19;4201442;28;5910;-75
2023/05/31 08:33:08;;;;;;;;;;;;;;;22.97;41.04;96821.41;4201973;28;5686;-75
2023/05/31 08:35:12;;;;;;;;;;;;;;;22.96;41.46;96819.78;4201342;28;5693;-78
2023/05/31 08:37:16;;;;;;;;;;;;;;;22.96;41.25;96819.78;4202655;28;5700;-79
2023/05/31 08:39:20;;;;;;;;;;;;;;;22.93;41.34;96817.66;4201484;28;5697;-76
2023/05/31 08:41:25;;;;;;;;;;;;;;;22.94;41.04;96813.88;4200897;28;5706;-74
2023/05/31 08:43:30;;;;;;;;;;;;;;;22.95;41.28;96812.78;4200349;28;5785;-74
2023/05/31 08:45:35;;;;;;;;;;;;;;;23.00;41.27;96815.50;4200449;28;6148;-72
2023/05/31 08:47:45;;;;;;;;;;;;;;;23.03;40.90;96814.94;4193162;28;5896;-68
2023/05/31 08:49:49;;;;;;;;;;;;;;;23.00;41.05;96810.09;4201014;28;5788;-70
2023/05/31 08:51:52;;;;;;;;;;;;;;;22.96;40.92;96809.00;4199891;28;5689;-70
2023/05/31 08:53:57;;;;;;;;;;;;;;;22.95;41.51;96812.78;4201837;28;5701;-71
2023/05/31 08:56:05;;;;;;;;;;;;;;;22.94;41.22;96816.56;4200904;28;5851;-67
2023/05/31 08:58:10;;;;;;;;;;;;;;;22.92;41.02;96814.16;4200908;28;5702;-76
2023/05/31 09:00:15;;;;;;;;;;;;;;;22.91;41.27;96809.03;4201130;28;5701;-73
2023/05/31 09:02:19;;;;;;;;;;;;;;;22.92;41.30;96802.56;4202313;28;5773;-82
2023/05/31 09:04:23;;;;;;;;;;;;;;;22.96;41.21;96809.00;4203196;28;5701;-81
2023/05/31 09:06:27;;;;;;;;;;;;;;;22.95;41.44;96807.41;4201676;28;5723;-74
2023/05/31 09:08:33;;;;;;;;;;;;;;;22.93;41.05;96799.59;4201891;28;5790;-74
2023/05/31 09:10:36;;;;;;;;;;;;;;;22.91;40.88;96806.34;4201471;28;5685;-73
2023/05/31 09:12:39;;;;;;;;;;;;;;;22.90;41.35;96805.53;4200162;28;5161;-74
2023/05/31 09:14:47;;;;;;;;;;;;;;;22.91;41.08;96804.44;4200758;28;5710;-72
2023/05/31 09:16:51;;;;;;;;;;;;;;;22.90;41.10;96802.84;4200264;28;5822;-71
2023/05/31 09:19:02;;;;;;;;;;;;;;;22.92;41.28;96803.38;4199909;28;5682;-69
2023/05/31 09:21:09;;;;;;;;;;;;;;;22.97;40.71;96801.72;4200108;28;5690;-70
2023/05/31 09:23:14;;;;;;;;;;;;;;;22.99;41.06;96805.78;4199827;28;5841;-75
2023/05/31 09:25:17;;;;;;;;;;;;;;;23.01;41.20;96798.25;4199817;28;5701;-71
2023/05/31 09:27:22;;;;;;;;;;;;;;;23.03;40.75;96792.56;4199790;28;5690;-69
2023/05/31 09:29:25;;;;;;;;;;;;;;;23.04;40.72;96799.56;4200724;28;5785;-72
2023/05/31 09:31:30;;;;;;;;;;;;;;;23.03;40.74;96795.25;4199877;28;5702;-74
2023/05/31 09:33:40;;;;;;;;;;;;;;;23.05;41.06;96796.59;4198321;28;5697;-74
2023/05/31 09:35:57;;;;;;;;;;;;;;;23.05;40.74;96796.59;4192193;28;5844;-74
2023/05/31 09:38:05;;;;;;;;;;;;;;;23.04;40.74;96795.00;4199498;28;5690;-71
2023/05/31 09:40:09;;;;;;;;;;;;;;;23.08;40.79;96790.66;4200059;28;5745;-73
2023/05/31 09:42:14;;;;;;;;;;;;;;;23.13;40.82;96797.94;4201221;28;5690;-72
2023/05/31 09:44:18;;;;;;;;;;;;;;;23.15;40.59;96798.47;4203368;28;5969;-70
2023/05/31 09:46:24;;;;;;;;;;;;;;;23.18;40.88;96801.44;4203332;28;5878;-72
2023/05/31 09:48:29;;;;;;;;;;;;;;;23.17;40.90;96799.81;4203201;28;5733;-72
2023/05/31 09:50:32;;;;;;;;;;;;;;;23.13;40.81;96806.84;4203160;28;5709;-74
2023/05/31 09:52:37;;;;;;;;;;;;;;;23.13;41.08;96804.16;4203064;28;5701;-74
2023/05/31 09:54:42;;;;;;;;;;;;;;;23.17;40.96;96805.19;4202690;28;5694;-72
2023/05/31 09:56:45;;;;;;;;;;;;;;;23.24;40.87;96802.22;4202616;28;5686;-72
2023/05/31 09:58:49;;;;;;;;;;;;;;;23.34;40.71;96804.91;4202301;28;5686;-73
2023/05/31 10:00:53;;;;;;;;;;;;;;;23.42;40.63;96800.81;4202517;28;5706;-72
2023/05/31 10:02:56;;;;;;;;;;;;;;;23.47;40.40;96798.13;4204100;28;5694;-75
2023/05/31 10:05:01;;;;;;;;;;;;;;;23.53;40.66;96791.59;4202633;28;5697;-72
2023/05/31 10:07:05;;;;;;;;;;;;;;;23.53;40.37;96778.91;4202129;28;6132;-72
2023/05/31 10:09:09;;;;;;;;;;;;;;;23.51;40.75;96783.78;4202766;28;5796;-75
2023/05/31 10:11:14;;;;;;;;;;;;;;;23.50;40.46;96778.69;4201792;28;6506;-73
2023/05/31 10:13:19;;;;;;;;;;;;;;;23.49;40.40;96771.66;4200054;28;5697;-71
2023/05/31 10:15:24;;;;;;;;;;;;;;;23.50;40.59;96775.97;4201838;28;5879;-74
2023/05/31 10:17:31;;;;;;;;;;;;;;;23.50;40.61;96782.19;4197722;28;5828;-73
2023/05/31 10:19:38;;;;;;;;;;;;;;;23.53;40.42;96781.63;4199012;28;6395;-73
2023/05/31 10:21:44;;;;;;;;;;;;;;;23.53;40.69;96775.41;4198656;28;5809;-75
2023/05/31 10:23:57;;;;;;;;;;;;;;;23.51;40.65;96767.59;4202769;28;6506;-71
2023/05/31 10:26:10;;;;;;;;;;;;;;;23.54;40.27;96766.25;4202402;28;5705;-74
2023/05/31 10:28:16;;;;;;;;;;;;;;;23.56;40.66;96768.66;4191498;28;5719;-75
2023/05/31 10:30:25;;;;;;;;;;;;;;;23.56;40.37;96763.25;4191950;28;5861;-73
2023/05/31 10:32:33;;;;;;;;;;;;;;;23.56;40.68;96765.97;4197405;28;5707;-74
2023/05/31 10:34:36;;;;;;;;;;;;;;;23.54;40.53;96767.03;4186304;28;5706;-72
2023/05/31 10:36:39;;;;;;;;;;;;;;;23.56;40.36;96764.09;4202392;28;5689;-74
2023/05/31 10:38:50;;;;;;;;;;;;;;;23.58;40.71;96761.13;4200539;28;6203;-74
2023/05/31 10:41:00;;;;;;;;;;;;;;;23.61;40.65;96761.38;4196611;28;5800;-75
2023/05/31 10:43:10;;;;;;;;;;;;;;;23.65;40.39;96762.44;4202401;28;5948;-75
2023/05/31 10:45:16;;;;;;;;;;;;;;;23.69;40.37;96762.72;4202052;28;7717;-73
2023/05/31 10:47:24;;;;;;;;;;;;;;;23.69;40.45;96763.53;4201753;28;5690;-74
2023/05/31 10:49:31;;;;;;;;;;;;;;;23.71;40.25;96755.94;4200476;28;5706;-75
2023/05/31 10:51:41;;;;;;;;;;;;;;;23.73;40.74;96751.06;4202383;28;5691;-72
2023/05/31 10:53:47;;;;;;;;;;;;;;;23.74;40.53;96755.38;4195155;28;5798;-73
2023/05/31 10:55:50;;;;;;;;;;;;;;;23.75;40.29;96751.59;4201897;28;5706;-73
2023/05/31 10:57:55;;;;;;;;;;;;;;;23.78;40.70;96753.75;4201699;28;5784;-73
2023/05/31 11:00:00;;;;;;;;;;;;;;;23.79;40.65;96751.88;4195280;28;6059;-72
2023/05/31 11:02:07;;;;;;;;;;;;;;;23.81;40.07;96752.41;4187099;28;5847;-70
2023/05/31 11:04:20;;;;;;;;;;;;;;;23.81;40.37;96755.91;4189563;28;5730;-73
2023/05/31 11:06:26;;;;;;;;;;;;;;;23.80;40.61;96754.28;4191415;28;7065;-69
2023/05/31 11:08:29;;;;;;;;;;;;;;;23.81;40.15;96750.50;4201822;28;5738;-68
2023/05/31 11:10:34;;;;;;;;;;;;;;;23.83;40.20;96747.53;4201854;28;5677;-68
2023/05/31 11:12:40;;;;;;;;;;;;;;;23.84;40.11;96754.53;4201586;28;5687;-67
2023/05/31 11:15:00;;;;;;;;;;;;;;;23.87;40.47;96759.34;4201547;28;5796;-68
2023/05/31 11:17:16;;;;;;;;;;;;;;;23.85;40.40;96755.34;4199244;28;5721;-66
2023/05/31 11:19:22;;;;;;;;;;;;;;;23.85;40.47;96761.53;4198295;28;6023;-70
2023/05/31 11:21:52;;;;;;;;;;;;;;;23.86;40.32;96757.75;4200693;28;5705;-76
2023/05/31 11:23:56;;;;;;;;;;;;;;;23.88;40.54;96754.75;4150471;28;5916;-69
2023/05/31 11:26:10;;;;;;;;;;;;;;;23.90;40.19;96747.19;4149964;28;5275;-71
2023/05/31 11:28:18;;;;;;;;;;;;;;;23.95;40.11;96749.88;4147654;28;5855;-72
2023/05/31 11:30:21;;;;;;;;;;;;;;;23.96;40.58;96749.59;4150035;28;5770;-78
2023/05/31 11:32:58;;;;;;;;;;;;;;;24.00;39.97;96755.22;4147908;28;6096;-70
2023/05/31 11:35:03;;;;;;;;;;;;;;;24.02;40.30;96753.09;4144359;28;5789;-73
2023/05/31 11:37:06;;;;;;;;;;;;;;;24.02;40.24;96744.97;4150377;28;5784;-71
2023/05/31 11:39:09;;;;;;;;;;;;;;;24.00;40.27;96747.94;4150006;28;6682;-71
2023/05/31 11:41:15;;;;;;;;;;;;;;;23.99;40.08;96748.22;4148397;28;5782;-70
2023/05/31 11:43:25;;;;;;;;;;;;;;;24.01;40.47;96740.63;4139591;28;5797;-72
2023/05/31 11:45:29;;;;;;;;;;;;;;;24.06;40.65;96735.22;4138384;28;5641;-68
2023/05/31 11:47:34;;;;;;;;;;;;;;;24.06;40.24;96746.84;4141261;28;5862;-67
2023/05/31 11:49:38;;;;;;;;;;;;;;;24.11;40.49;96744.09;4138330;28;6016;-78
2023/05/31 11:51:43;;;;;;;;;;;;;;;24.17;40.38;96739.47;4149026;28;5830;-75
2023/05/31 11:53:47;;;;;;;;;;;;;;;24.23;40.19;96732.13;4146134;28;5935;-76
2023/05/31 11:55:51;;;;;;;;;;;;;;;24.26;40.30;96732.38;4135986;28;5877;-75
2023/05/31 11:57:57;;;;;;;;;;;;;;;24.26;40.43;96728.88;4143935;28;5943;-70
2023/05/31 12:00:08;;;;;;;;;;;;;;;24.28;40.38;96735.59;4170167;28;5801;-73
2023/05/31 12:02:12;;;;;;;;;;;;;;;24.30;40.40;96736.16;4200460;28;5798;-73
2023/05/31 12:04:16;;;;;;;;;;;;;;;24.35;40.17;96732.59;4200093;28;5785;-72
2023/05/31 12:06:19;;;;;;;;;;;;;;;24.38;40.20;96742.84;4200061;28;5849;-75
2023/05/31 12:08:26;;;;;;;;;;;;;;;24.35;40.17;96738.84;4200232;28;5808;-71
2023/05/31 12:10:32;;;;;;;;;;;;;;;24.34;40.66;96736.38;4200525;28;5744;-75
2023/05/31 12:12:36;;;;;;;;;;;;;;;24.36;40.75;96739.63;4191577;28;5772;-71
2023/05/31 12:14:50;;;;;;;;;;;;;;;24.39;40.16;96739.88;4200601;28;5847;-74
2023/05/31 12:16:53;;;;;;;;;;;;;;;24.41;40.40;96745.00;4199002;28;5800;-72
2023/05/31 12:18:57;;;;;;;;;;;;;;;24.43;40.67;96747.41;4199669;28;5734;-70
2023/05/31 12:21:05;;;;;;;;;;;;;;;24.44;40.24;96751.72;4192346;28;5701;-68
2023/05/31 12:23:12;;;;;;;;;;;;;;;24.44;40.25;96751.72;4200411;28;5837;-71
2023/05/31 12:25:18;;;;;;;;;;;;;;;24.42;39.99;96753.91;4199980;28;5685;-70
2023/05/31 12:27:23;;;;;;;;;;;;;;;24.35;40.06;96752.34;4200169;28;5698;-70
2023/05/31 12:29:47;;;;;;;;;;;;;;;24.28;40.16;96754.50;4193806;28;5698;-71
2023/05/31 12:32:01;;;;;;;;;;;;;;;24.26;40.28;96750.47;4194281;28;5829;-73
2023/05/31 12:34:08;;;;;;;;;;;;;;;24.26;40.38;96751.28;4194361;28;5725;-74
2023/05/31 12:36:12;;;;;;;;;;;;;;;24.29;40.33;96763.41;4196767;28;5945;-68
2023/05/31 12:38:16;;;;;;;;;;;;;;;24.29;40.06;96766.13;4197657;28;5763;-75
2023/05/31 12:40:22;;;;;;;;;;;;;;;24.23;40.03;96770.75;4192098;28;5777;-71
2023/05/31 12:42:26;;;;;;;;;;;;;;;24.18;40.60;96776.19;4198417;28;5694;-67
2023/05/31 12:44:29;;;;;;;;;;;;;;;24.15;40.29;96773.25;4199584;28;5682;-69
2023/05/31 12:46:39;;;;;;;;;;;;;;;24.13;40.43;96768.13;4196417;28;5837;-68
2023/05/31 12:48:47;;;;;;;;;;;;;;;24.11;40.51;96770.28;4199560;28;5769;-69
2023/05/31 12:50:50;;;;;;;;;;;;;;;24.10;40.84;96766.78;4192580;28;5786;-68
2023/05/31 12:52:57;;;;;;;;;;;;;;;24.12;40.99;96771.91;4201220;28;5777;-68
2023/05/31 12:55:04;;;;;;;;;;;;;;;24.11;41.12;96764.88;4198057;28;5860;-68
2023/05/31 12:57:14;;;;;;;;;;;;;;;24.05;40.87;96766.81;4198165;28;5784;-69
2023/05/31 12:59:21;;;;;;;;;;;;;;;24.08;41.03;96765.44;4198272;28;5690;-69
2023/05/31 13:01:24;;;;;;;;;;;;;;;24.08;40.87;96765.44;4199710;28;5901;-68
2023/05/31 13:03:30;;;;;;;;;;;;;;;24.10;41.05;96765.97;4199758;28;5701;-68
2023/05/31 13:05:33;;;;;;;;;;;;;;;24.10;40.80;96763.28;4199185;28;5698;-70
2023/05/31 13:07:36;;;;;;;;;;;;;;;24.10;41.49;96760.56;4190436;28;5717;-69
2023/05/31 13:09:39;;;;;;;;;;;;;;;24.11;41.56;96754.06;4199305;28;5765;-70
2023/05/31 13:11:43;;;;;;;;;;;;;;;24.11;41.30;96754.06;4199164;28;5851;-69
2023/05/31 13:13:46;;;;;;;;;;;;;;;24.10;41.43;96757.88;4199897;28;5796;-67
2023/05/31 13:15:49;;;;;;;;;;;;;;;24.08;41.89;96760.03;4198681;28;5725;-69
2023/05/31 13:17:52;;;;;;;;;;;;;;;24.05;41.60;96761.41;4202005;28;5737;-68
2023/05/31 13:19:57;;;;;;;;;;;;;;;24.02;42.15;96770.09;4203089;28;5852;-69
2023/05/31 13:22:14;;;;;;;;;;;;;;;24.02;41.96;96755.78;4203371;28;5805;-73
2023/05/31 13:24:17;;;;;;;;;;;;;;;24.05;42.14;96756.03;4198149;28;5722;-73
2023/05/31 13:26:21;;;;;;;;;;;;;;;24.11;42.67;96760.28;4201933;28;5682;-73
2023/05/31 13:28:25;;;;;;;;;;;;;;;24.17;42.38;96752.97;4203279;28;5768;-74
2023/05/31 13:30:28;;;;;;;;;;;;;;;24.11;42.50;96754.06;4203349;28;5087;-75
2023/05/31 13:32:31;;;;;;;;;;;;;;;24.17;43.02;96747.56;4203071;28;5681;-75
2023/05/31 13:34:34;;;;;;;;;;;;;;;24.23;42.74;96757.22;4201294;28;5797;-72
2023/05/31 13:36:38;;;;;;;;;;;;;;;24.26;42.69;96748.59;4192034;28;5697;-73
2023/05/31 13:38:41;;;;;;;;;;;;;;;24.25;42.85;96740.78;4202685;28;5697;-72
2023/05/31 13:40:45;;;;;;;;;;;;;;;24.25;43.40;96744.28;4202750;28;5691;-72
2023/05/31 13:42:48;;;;;;;;;;;;;;;24.26;43.12;96739.69;4196742;28;5710;-72
2023/05/31 13:44:53;;;;;;;;;;;;;;;24.27;43.19;96725.88;4202927;28;5689;-74
2023/05/31 13:46:56;;;;;;;;;;;;;;;24.31;43.26;96731.56;4202363;28;6612;-76
2023/05/31 13:48:59;;;;;;;;;;;;;;;24.30;43.74;96722.66;4195865;28;6368;-74
2023/05/31 13:51:03;;;;;;;;;;;;;;;24.33;43.59;96730.19;4200251;28;5762;-73
2023/05/31 13:53:07;;;;;;;;;;;;;;;24.33;43.78;96732.88;4190519;28;5877;-75
2023/05/31 13:55:10;;;;;;;;;;;;;;;24.34;43.90;96730.97;4190457;28;5829;-70
2023/05/31 13:57:13;;;;;;;;;;;;;;;24.32;43.52;96733.97;4198114;28;5853;-68
2023/05/31 13:59:16;;;;;;;;;;;;;;;24.35;43.91;96741.53;4194583;28;5697;-70
2023/05/31 14:01:19;;;;;;;;;;;;;;;24.37;43.47;96736.66;4189857;28;5893;-70
2023/05/31 14:03:22;;;;;;;;;;;;;;;24.36;43.58;96729.63;4180762;28;5933;-73
2023/05/31 14:05:27;;;;;;;;;;;;;;;24.35;43.96;96732.59;4187292;28;5809;-72
2023/05/31 14:07:30;;;;;;;;;;;;;;;24.33;44.24;96730.19;4183026;28;5798;-77
2023/05/31 14:09:35;;;;;;;;;;;;;;;24.33;44.27;96729.38;4184615;28;5876;-77
2023/05/31 14:11:39;;;;;;;;;;;;;;;24.31;44.28;96724.25;4175780;28;5747;-73
2023/05/31 14:13:42;;;;;;;;;;;;;;;24.29;43.95;96722.91;4188128;28;5820;-73
2023/05/31 14:15:45;;;;;;;;;;;;;;;24.28;44.15;96721.28;4186314;28;5814;-76
2023/05/31 14:17:48;;;;;;;;;;;;;;;24.28;44.50;96730.19;4181376;28;5778;-74
2023/05/31 14:19:51;;;;;;;;;;;;;;;24.31;44.68;96735.06;4185152;28;6200;-76
2023/05/31 14:21:54;;;;;;;;;;;;;;;24.34;44.42;96734.50;4196011;28;5927;-73
2023/05/31 14:23:57;;;;;;;;;;;;;;;24.35;44.36;96736.13;4202252;28;5844;-74
2023/05/31 14:26:03;;;;;;;;;;;;;;;24.36;44.26;96728.84;4198419;28;5773;-75
2023/05/31 14:28:06;;;;;;;;;;;;;;;24.38;44.15;96738.25;4182147;28;5892;-77
2023/05/31 14:30:09;;;;;;;;;;;;;;;24.41;44.19;96733.38;4180973;28;5812;-77
2023/05/31 14:32:14;;;;;;;;;;;;;;;24.43;44.40;96728.50;4193128;28;6263;-75
2023/05/31 14:34:18;;;;;;;;;;;;;;;24.43;44.26;96728.50;4192072;28;5773;-74
2023/05/31 14:36:21;;;;;;;;;;;;;;;24.45;43.90;96724.41;4197810;28;5729;-76
2023/05/31 14:38:25;;;;;;;;;;;;;;;24.47;44.13;96722.25;4186431;28;5780;-76
2023/05/31 14:40:37;;;;;;;;;;;;;;;24.50;44.10;96718.97;4187772;28;5710;-78
2023/05/31 14:42:42;;;;;;;;;;;;;;;24.52;44.01;96724.09;4184545;28;5780;-77
2023/05/31 14:44:46;;;;;;;;;;;;;;;24.56;44.13;96717.03;4205104;28;5783;-76
2023/05/31 14:46:49;;;;;;;;;;;;;;;24.56;44.08;96723.22;4197282;28;5862;-75
2023/05/31 14:48:53;;;;;;;;;;;;;;;24.57;43.90;96718.63;4196217;28;5916;-77
2023/05/31 14:50:59;;;;;;;;;;;;;;;24.57;44.05;96718.63;4200814;28;5884;-76
2023/05/31 14:53:04;;;;;;;;;;;;;;;24.55;44.06;96720.81;4205141;28;5787;-78
2023/05/31 14:55:15;;;;;;;;;;;;;;;24.55;44.37;96715.41;4199098;28;5726;-72
2023/05/31 14:57:18;;;;;;;;;;;;;;;24.55;43.89;96716.22;4201006;28;5848;-82
2023/05/31 14:59:28;;;;;;;;;;;;;;;24.54;44.05;96717.31;4194446;28;5817;-78
2023/05/31 15:01:31;;;;;;;;;;;;;;;24.56;43.96;96719.72;4196032;28;5697;-80
2023/05/31 15:03:34;;;;;;;;;;;;;;;24.58;44.10;96722.97;4187639;28;5888;-82
2023/05/31 15:05:37;;;;;;;;;;;;;;;24.59;44.25;96721.88;4189839;28;6197;-75
2023/05/31 15:07:40;;;;;;;;;;;;;;;24.60;44.22;96724.28;4188722;28;7860;-74
2023/05/31 15:09:43;;;;;;;;;;;;;;;24.60;44.40;96723.50;4190386;28;6083;-77
2023/05/31 15:11:46;;;;;;;;;;;;;;;24.59;44.38;96713.78;4190936;28;5963;-74
2023/05/31 15:13:50;;;;;;;;;;;;;;;24.60;44.65;96715.38;4199480;28;5896;-74
2023/05/31 15:15:55;;;;;;;;;;;;;;;24.58;44.17;96720.28;4188765;28;5834;-71
2023/05/31 15:17:59;;;;;;;;;;;;;;;24.64;44.07;96719.13;4190986;28;5746;-69
2023/05/31 15:20:02;;;;;;;;;;;;;;;24.68;44.47;96722.84;4187309;28;5688;-73
2023/05/31 15:22:06;;;;;;;;;;;;;;;24.70;43.82;96722.59;4190875;28;5761;-76
2023/05/31 15:24:09;;;;;;;;;;;;;;;24.71;44.10;96722.31;4186675;28;5896;-71
2023/05/31 15:26:14;;;;;;;;;;;;;;;24.72;43.93;96721.22;4183810;28;5711;-72
2023/05/31 15:28:17;;;;;;;;;;;;;;;24.76;43.93;96716.84;4180322;28;5808;-71
2023/05/31 15:30:20;;;;;;;;;;;;;;;24.79;43.96;96713.56;4184353;28;5925;-76
2023/05/31 15:32:25;;;;;;;;;;;;;;;24.81;43.42;96713.28;4187695;28;5850;-72
2023/05/31 15:34:28;;;;;;;;;;;;;;;24.82;43.72;96712.19;4186490;28;5798;-76
2023/05/31 15:36:32;;;;;;;;;;;;;;;24.84;43.05;96708.09;4190439;28;5898;-75
2023/05/31 15:38:35;;;;;;;;;;;;;;;24.86;43.50;96707.81;4199137;28;5829;-74
2023/05/31 15:40:40;;;;;;;;;;;;;;;24.88;43.31;96713.75;4192001;28;5836;-72
2023/05/31 15:42:43;;;;;;;;;;;;;;;24.90;43.03;96701.53;4189690;28;5706;-78
2023/05/31 15:44:47;;;;;;;;;;;;;;;24.92;43.25;96715.59;4184833;28;5718;-72
2023/05/31 15:46:51;;;;;;;;;;;;;;;24.93;42.99;96708.28;4198370;28;5717;-70
2023/05/31 15:48:55;;;;;;;;;;;;;;;24.93;42.61;96711.00;4198777;28;5796;-69
2023/05/31 15:50:58;;;;;;;;;;;;;;;24.97;42.49;96720.13;4190585;28;5819;-75
2023/05/31 15:53:01;;;;;;;;;;;;;;;24.98;42.39;96722.56;4194359;28;5685;-74
2023/05/31 15:55:05;;;;;;;;;;;;;;;25.01;42.64;96717.66;4200469;28;5773;-72
2023/05/31 15:57:09;;;;;;;;;;;;;;;25.04;42.53;96722.53;4200538;28;5777;-77
2023/05/31 15:59:12;;;;;;;;;;;;;;;25.05;42.19;96724.97;4200971;28;5711;-71
2023/05/31 16:01:15;;;;;;;;;;;;;;;25.06;42.71;96717.66;4188743;28;5913;-71
2023/05/31 16:03:18;;;;;;;;;;;;;;;25.06;42.21;96728.47;4199429;28;5686;-71
2023/05/31 16:05:23;;;;;;;;;;;;;;;25.08;42.18;96718.97;4198039;28;5716;-77